sensor_id;sensor_type;location;lat;lon;timestamp;temperature;humidity
62589;DHT22;58504;48.770;9.148;2022-07-29T00:01:37;26.30;52.00
62589;DHT22;58504;48.770;9.148;2022-07-29T00:04:04;26.30;52.00
62589;DHT22;58504;48.770;9.148;2022-07-29T00:06:31;26.30;52.00
62589;DHT22;58504;48.770;9.148;2022-07-29T00:08:59;26.30;52.10
62589;DHT22;58504;48.770;9.148;2022-07-29T00:11:26;26.30;52.10
62589;DHT22;58504;48.770;9.148;2022-07-29T00:13:53;26.20;52.10
62589;DHT22;58504;48.770;9.148;2022-07-29T00:16:19;26.20;52.10
62589;DHT22;58504;48.770;9.148;2022-07-29T00:18:46;26.20;52.10
62589;DHT22;58504;48.770;9.148;2022-07-29T00:21:13;26.20;52.10
62589;DHT22;58504;48.770;9.148;2022-07-29T00:23:40;26.20;52.80
62589;DHT22;58504;48.770;9.148;2022-07-29T00:26:08;26.20;52.20
62589;DHT22;58504;48.770;9.148;2022-07-29T00:28:35;26.20;52.20
62589;DHT22;58504;48.770;9.148;2022-07-29T00:31:02;26.20;52.30
62589;DHT22;58504;48.770;9.148;2022-07-29T00:33:29;26.10;52.30
62589;DHT22;58504;48.770;9.148;2022-07-29T00:35:55;26.10;52.30
62589;DHT22;58504;48.770;9.148;2022-07-29T00:38:21;26.10;52.30
62589;DHT22;58504;48.770;9.148;2022-07-29T00:40:48;26.10;52.40
62589;DHT22;58504;48.770;9.148;2022-07-29T00:43:17;26.10;52.40
62589;DHT22;58504;48.770;9.148;2022-07-29T00:45:44;26.10;52.50
62589;DHT22;58504;48.770;9.148;2022-07-29T00:48:17;26.10;52.50
62589;DHT22;58504;48.770;9.148;2022-07-29T00:50:44;26.10;52.50
62589;DHT22;58504;48.770;9.148;2022-07-29T00:53:12;26.00;52.50
62589;DHT22;58504;48.770;9.148;2022-07-29T00:55:39;26.00;52.50
62589;DHT22;58504;48.770;9.148;2022-07-29T00:58:06;26.00;52.60
62589;DHT22;58504;48.770;9.148;2022-07-29T01:00:34;26.00;52.60
62589;DHT22;58504;48.770;9.148;2022-07-29T01:03:02;26.00;52.60
62589;DHT22;58504;48.770;9.148;2022-07-29T01:05:29;26.00;52.60
62589;DHT22;58504;48.770;9.148;2022-07-29T01:07:57;26.00;52.70
62589;DHT22;58504;48.770;9.148;2022-07-29T01:10:26;25.90;52.60
62589;DHT22;58504;48.770;9.148;2022-07-29T01:12:55;25.90;52.60
62589;DHT22;58504;48.770;9.148;2022-07-29T01:15:23;25.90;52.70
62589;DHT22;58504;48.770;9.148;2022-07-29T01:17:59;25.90;52.70
62589;DHT22;58504;48.770;9.148;2022-07-29T01:20:39;25.90;52.70
62589;DHT22;58504;48.770;9.148;2022-07-29T01:23:28;25.90;52.70
62589;DHT22;58504;48.770;9.148;2022-07-29T01:26:31;25.90;52.80
62589;DHT22;58504;48.770;9.148;2022-07-29T01:29:03;25.90;52.80
62589;DHT22;58504;48.770;9.148;2022-07-29T01:31:38;25.90;52.80
62589;DHT22;58504;48.770;9.148;2022-07-29T01:34:08;25.90;52.90
62589;DHT22;58504;48.770;9.148;2022-07-29T01:36:40;25.90;52.90
62589;DHT22;58504;48.770;9.148;2022-07-29T01:39:12;25.90;52.90
62589;DHT22;58504;48.770;9.148;2022-07-29T01:41:50;25.80;52.80
62589;DHT22;58504;48.770;9.148;2022-07-29T01:44:26;25.80;52.90
62589;DHT22;58504;48.770;9.148;2022-07-29T01:46:58;25.80;52.90
62589;DHT22;58504;48.770;9.148;2022-07-29T01:49:28;25.80;52.90
62589;DHT22;58504;48.770;9.148;2022-07-29T01:51:59;25.80;52.90
62589;DHT22;58504;48.770;9.148;2022-07-29T01:54:32;25.80;53.00
62589;DHT22;58504;48.770;9.148;2022-07-29T01:57:01;25.80;53.00
62589;DHT22;58504;48.770;9.148;2022-07-29T01:59:33;25.80;53.00
62589;DHT22;58504;48.770;9.148;2022-07-29T02:02:02;25.80;53.00
62589;DHT22;58504;48.770;9.148;2022-07-29T02:04:29;25.80;53.00
62589;DHT22;58504;48.770;9.148;2022-07-29T02:07:00;25.80;53.00
62589;DHT22;58504;48.770;9.148;2022-07-29T02:09:29;25.80;53.00
62589;DHT22;58504;48.770;9.148;2022-07-29T02:11:57;25.80;53.00
62589;DHT22;58504;48.770;9.148;2022-07-29T02:14:27;25.80;53.00
62589;DHT22;58504;48.770;9.148;2022-07-29T02:16:57;25.80;53.00
62589;DHT22;58504;48.770;9.148;2022-07-29T02:19:25;25.80;53.00
62589;DHT22;58504;48.770;9.148;2022-07-29T02:21:54;25.80;53.00
62589;DHT22;58504;48.770;9.148;2022-07-29T02:24:23;25.80;53.00
62589;DHT22;58504;48.770;9.148;2022-07-29T02:26:53;25.80;53.00
62589;DHT22;58504;48.770;9.148;2022-07-29T02:29:25;25.80;53.00
62589;DHT22;58504;48.770;9.148;2022-07-29T02:31:53;25.80;53.00
62589;DHT22;58504;48.770;9.148;2022-07-29T02:34:23;25.80;53.10
62589;DHT22;58504;48.770;9.148;2022-07-29T02:36:51;25.70;53.00
62589;DHT22;58504;48.770;9.148;2022-07-29T02:39:19;25.70;53.00
62589;DHT22;58504;48.770;9.148;2022-07-29T02:41:48;25.70;53.00
62589;DHT22;58504;48.770;9.148;2022-07-29T02:44:18;25.80;53.10
62589;DHT22;58504;48.770;9.148;2022-07-29T02:46:50;25.70;53.00
62589;DHT22;58504;48.770;9.148;2022-07-29T02:49:26;25.70;53.00
62589;DHT22;58504;48.770;9.148;2022-07-29T02:51:58;25.70;53.00
62589;DHT22;58504;48.770;9.148;2022-07-29T02:54:31;25.70;53.00
62589;DHT22;58504;48.770;9.148;2022-07-29T02:57:05;25.70;53.00
62589;DHT22;58504;48.770;9.148;2022-07-29T02:59:36;25.70;53.00
62589;DHT22;58504;48.770;9.148;2022-07-29T03:02:05;25.70;53.00
62589;DHT22;58504;48.770;9.148;2022-07-29T03:04:34;25.70;53.00
62589;DHT22;58504;48.770;9.148;2022-07-29T03:07:03;25.70;53.00
62589;DHT22;58504;48.770;9.148;2022-07-29T03:09:31;25.70;53.00
62589;DHT22;58504;48.770;9.148;2022-07-29T03:11:59;25.80;53.10
62589;DHT22;58504;48.770;9.148;2022-07-29T03:14:27;25.70;53.00
62589;DHT22;58504;48.770;9.148;2022-07-29T03:16:55;25.70;53.00
62589;DHT22;58504;48.770;9.148;2022-07-29T03:19:22;25.70;53.00
62589;DHT22;58504;48.770;9.148;2022-07-29T03:21:50;25.70;53.00
62589;DHT22;58504;48.770;9.148;2022-07-29T03:24:29;25.70;53.00
62589;DHT22;58504;48.770;9.148;2022-07-29T03:26:56;25.70;53.00
62589;DHT22;58504;48.770;9.148;2022-07-29T03:29:23;25.70;53.00
62589;DHT22;58504;48.770;9.148;2022-07-29T03:31:51;25.70;53.00
62589;DHT22;58504;48.770;9.148;2022-07-29T03:34:18;25.70;53.00
62589;DHT22;58504;48.770;9.148;2022-07-29T03:36:45;25.70;53.10
62589;DHT22;58504;48.770;9.148;2022-07-29T03:39:17;25.70;53.10
62589;DHT22;58504;48.770;9.148;2022-07-29T03:41:46;25.70;53.10
62589;DHT22;58504;48.770;9.148;2022-07-29T03:44:15;25.70;53.10
62589;DHT22;58504;48.770;9.148;2022-07-29T03:46:43;25.70;53.10
62589;DHT22;58504;48.770;9.148;2022-07-29T03:49:11;25.70;53.10
62589;DHT22;58504;48.770;9.148;2022-07-29T03:51:39;25.60;53.60
62589;DHT22;58504;48.770;9.148;2022-07-29T03:54:06;25.70;53.10
62589;DHT22;58504;48.770;9.148;2022-07-29T03:56:37;25.70;53.10
62589;DHT22;58504;48.770;9.148;2022-07-29T03:59:05;25.70;53.10
62589;DHT22;58504;48.770;9.148;2022-07-29T04:01:33;25.60;53.10
62589;DHT22;58504;48.770;9.148;2022-07-29T04:04:02;25.60;53.00
62589;DHT22;58504;48.770;9.148;2022-07-29T04:06:37;25.60;53.00
62589;DHT22;58504;48.770;9.148;2022-07-29T04:09:04;25.60;53.00
62589;DHT22;58504;48.770;9.148;2022-07-29T04:11:31;25.60;53.10
62589;DHT22;58504;48.770;9.148;2022-07-29T04:14:00;25.60;53.00
62589;DHT22;58504;48.770;9.148;2022-07-29T04:16:26;25.60;53.00
62589;DHT22;58504;48.770;9.148;2022-07-29T04:18:53;25.60;53.10
62589;DHT22;58504;48.770;9.148;2022-07-29T04:21:20;25.60;53.00
62589;DHT22;58504;48.770;9.148;2022-07-29T04:23:47;25.60;53.00
62589;DHT22;58504;48.770;9.148;2022-07-29T04:26:15;25.60;53.00
62589;DHT22;58504;48.770;9.148;2022-07-29T04:28:42;25.60;53.00
62589;DHT22;58504;48.770;9.148;2022-07-29T04:31:11;25.60;53.00
62589;DHT22;58504;48.770;9.148;2022-07-29T04:33:38;25.60;53.00
62589;DHT22;58504;48.770;9.148;2022-07-29T04:36:05;25.70;53.10
62589;DHT22;58504;48.770;9.148;2022-07-29T04:38:32;25.60;53.00
62589;DHT22;58504;48.770;9.148;2022-07-29T04:40:59;25.70;53.10
62589;DHT22;58504;48.770;9.148;2022-07-29T04:43:26;25.60;53.00
62589;DHT22;58504;48.770;9.148;2022-07-29T04:45:53;25.70;53.10
62589;DHT22;58504;48.770;9.148;2022-07-29T04:48:21;25.60;53.50
62589;DHT22;58504;48.770;9.148;2022-07-29T04:50:48;25.60;53.00
62589;DHT22;58504;48.770;9.148;2022-07-29T04:53:15;25.60;53.00
62589;DHT22;58504;48.770;9.148;2022-07-29T04:55:42;25.70;53.10
62589;DHT22;58504;48.770;9.148;2022-07-29T04:58:08;25.70;53.10
62589;DHT22;58504;48.770;9.148;2022-07-29T05:00:35;25.70;53.10
62589;DHT22;58504;48.770;9.148;2022-07-29T05:03:02;25.70;53.10
62589;DHT22;58504;48.770;9.148;2022-07-29T05:05:31;25.70;53.10
62589;DHT22;58504;48.770;9.148;2022-07-29T05:07:58;25.70;53.10
62589;DHT22;58504;48.770;9.148;2022-07-29T05:10:25;25.70;53.20
62589;DHT22;58504;48.770;9.148;2022-07-29T05:12:52;25.70;53.10
62589;DHT22;58504;48.770;9.148;2022-07-29T05:15:19;25.70;53.00
62589;DHT22;58504;48.770;9.148;2022-07-29T05:17:46;25.70;53.00
62589;DHT22;58504;48.770;9.148;2022-07-29T05:20:12;25.80;53.10
62589;DHT22;58504;48.770;9.148;2022-07-29T05:22:41;25.80;53.50
62589;DHT22;58504;48.770;9.148;2022-07-29T05:25:08;25.80;53.00
62589;DHT22;58504;48.770;9.148;2022-07-29T05:27:35;25.80;52.80
62589;DHT22;58504;48.770;9.148;2022-07-29T05:30:03;25.80;52.80
62589;DHT22;58504;48.770;9.148;2022-07-29T05:32:30;25.80;52.70
62589;DHT22;58504;48.770;9.148;2022-07-29T05:34:57;25.80;52.60
62589;DHT22;58504;48.770;9.148;2022-07-29T05:37:24;25.90;52.70
62589;DHT22;58504;48.770;9.148;2022-07-29T05:39:52;25.90;52.60
62589;DHT22;58504;48.770;9.148;2022-07-29T05:42:19;25.90;52.50
62589;DHT22;58504;48.770;9.148;2022-07-29T05:44:45;25.90;52.40
62589;DHT22;58504;48.770;9.148;2022-07-29T05:47:13;26.00;52.40
62589;DHT22;58504;48.770;9.148;2022-07-29T05:49:40;26.00;52.40
62589;DHT22;58504;48.770;9.148;2022-07-29T05:52:06;26.00;52.30
62589;DHT22;58504;48.770;9.148;2022-07-29T05:54:34;26.00;52.30
62589;DHT22;58504;48.770;9.148;2022-07-29T05:57:03;26.00;52.20
62589;DHT22;58504;48.770;9.148;2022-07-29T05:59:30;26.00;52.20
62589;DHT22;58504;48.770;9.148;2022-07-29T06:01:56;26.10;52.20
62589;DHT22;58504;48.770;9.148;2022-07-29T06:04:23;26.10;52.10
62589;DHT22;58504;48.770;9.148;2022-07-29T06:06:50;26.10;52.10
62589;DHT22;58504;48.770;9.148;2022-07-29T06:09:17;26.10;52.10
62589;DHT22;58504;48.770;9.148;2022-07-29T06:11:44;26.20;52.10
62589;DHT22;58504;48.770;9.148;2022-07-29T06:14:12;26.10;51.90
62589;DHT22;58504;48.770;9.148;2022-07-29T06:16:39;26.20;52.00
62589;DHT22;58504;48.770;9.148;2022-07-29T06:19:06;26.20;52.40
62589;DHT22;58504;48.770;9.148;2022-07-29T06:21:33;26.30;52.20
62589;DHT22;58504;48.770;9.148;2022-07-29T06:24:00;26.20;52.40
62589;DHT22;58504;48.770;9.148;2022-07-29T06:26:27;26.30;52.40
62589;DHT22;58504;48.770;9.148;2022-07-29T06:28:54;26.30;52.30
62589;DHT22;58504;48.770;9.148;2022-07-29T06:31:22;26.30;52.20
62589;DHT22;58504;48.770;9.148;2022-07-29T06:33:49;26.40;52.30
62589;DHT22;58504;48.770;9.148;2022-07-29T06:36:16;26.40;52.30
62589;DHT22;58504;48.770;9.148;2022-07-29T06:38:43;26.50;52.20
62589;DHT22;58504;48.770;9.148;2022-07-29T06:41:09;26.40;52.20
62589;DHT22;58504;48.770;9.148;2022-07-29T06:43:39;26.50;52.20
62589;DHT22;58504;48.770;9.148;2022-07-29T06:46:08;26.60;52.00
62589;DHT22;58504;48.770;9.148;2022-07-29T06:48:36;26.60;51.90
62589;DHT22;58504;48.770;9.148;2022-07-29T06:51:04;26.60;51.70
62589;DHT22;58504;48.770;9.148;2022-07-29T06:53:32;26.70;51.70
62589;DHT22;58504;48.770;9.148;2022-07-29T06:56:00;26.70;51.90
62589;DHT22;58504;48.770;9.148;2022-07-29T06:58:28;26.70;51.80
62589;DHT22;58504;48.770;9.148;2022-07-29T07:00:55;26.70;51.70
62589;DHT22;58504;48.770;9.148;2022-07-29T07:03:22;26.80;51.60
62589;DHT22;58504;48.770;9.148;2022-07-29T07:05:52;26.90;51.30
62589;DHT22;58504;48.770;9.148;2022-07-29T07:08:20;27.00;51.00
62589;DHT22;58504;48.770;9.148;2022-07-29T07:10:48;27.20;50.70
62589;DHT22;58504;48.770;9.148;2022-07-29T07:13:15;27.30;50.30
62589;DHT22;58504;48.770;9.148;2022-07-29T07:15:42;27.50;49.90
62589;DHT22;58504;48.770;9.148;2022-07-29T07:18:09;27.70;49.40
62589;DHT22;58504;48.770;9.148;2022-07-29T07:20:37;27.80;48.90
62589;DHT22;58504;48.770;9.148;2022-07-29T07:23:05;27.90;48.70
62589;DHT22;58504;48.770;9.148;2022-07-29T07:25:32;28.10;48.40
62589;DHT22;58504;48.770;9.148;2022-07-29T07:27:59;28.40;47.90
62589;DHT22;58504;48.770;9.148;2022-07-29T07:30:26;28.60;47.90
62589;DHT22;58504;48.770;9.148;2022-07-29T07:32:53;28.60;46.80
62589;DHT22;58504;48.770;9.148;2022-07-29T07:35:20;28.60;46.90
62589;DHT22;58504;48.770;9.148;2022-07-29T07:37:47;28.90;46.60
62589;DHT22;58504;48.770;9.148;2022-07-29T07:40:16;29.20;46.00
62589;DHT22;58504;48.770;9.148;2022-07-29T07:42:43;29.50;45.20
62589;DHT22;58504;48.770;9.148;2022-07-29T07:45:10;29.90;44.50
62589;DHT22;58504;48.770;9.148;2022-07-29T07:47:38;30.30;43.60
62589;DHT22;58504;48.770;9.148;2022-07-29T07:50:07;30.80;42.50
62589;DHT22;58504;48.770;9.148;2022-07-29T07:52:34;31.30;41.70
62589;DHT22;58504;48.770;9.148;2022-07-29T07:55:16;31.40;41.10
62589;DHT22;58504;48.770;9.148;2022-07-29T07:57:43;31.60;40.90
62589;DHT22;58504;48.770;9.148;2022-07-29T08:00:11;31.60;40.60
62589;DHT22;58504;48.770;9.148;2022-07-29T08:02:38;31.50;40.80
62589;DHT22;58504;48.770;9.148;2022-07-29T08:05:09;31.60;41.00
62589;DHT22;58504;48.770;9.148;2022-07-29T08:07:37;31.90;40.40
62589;DHT22;58504;48.770;9.148;2022-07-29T08:10:05;32.30;39.70
62589;DHT22;58504;48.770;9.148;2022-07-29T08:12:33;32.70;38.80
62589;DHT22;58504;48.770;9.148;2022-07-29T08:15:00;33.10;38.00
62589;DHT22;58504;48.770;9.148;2022-07-29T08:17:27;33.60;37.10
62589;DHT22;58504;48.770;9.148;2022-07-29T08:19:54;33.80;36.50
62589;DHT22;58504;48.770;9.148;2022-07-29T08:22:20;34.20;35.90
62589;DHT22;58504;48.770;9.148;2022-07-29T08:24:47;34.10;35.70
62589;DHT22;58504;48.770;9.148;2022-07-29T08:27:19;34.10;35.70
62589;DHT22;58504;48.770;9.148;2022-07-29T08:29:48;33.60;36.40
62589;DHT22;58504;48.770;9.148;2022-07-29T08:32:15;33.80;36.40
62589;DHT22;58504;48.770;9.148;2022-07-29T08:34:42;33.90;36.10
62589;DHT22;58504;48.770;9.148;2022-07-29T08:37:11;34.10;35.80
62589;DHT22;58504;48.770;9.148;2022-07-29T08:39:38;34.00;35.80
62589;DHT22;58504;48.770;9.148;2022-07-29T08:42:05;33.70;36.00
62589;DHT22;58504;48.770;9.148;2022-07-29T08:44:33;33.40;36.30
62589;DHT22;58504;48.770;9.148;2022-07-29T08:47:01;32.90;37.20
62589;DHT22;58504;48.770;9.148;2022-07-29T08:49:28;32.20;37.80
62589;DHT22;58504;48.770;9.148;2022-07-29T08:51:55;32.00;38.10
62589;DHT22;58504;48.770;9.148;2022-07-29T08:54:24;32.10;37.90
62589;DHT22;58504;48.770;9.148;2022-07-29T08:56:51;32.30;38.10
62589;DHT22;58504;48.770;9.148;2022-07-29T08:59:20;32.40;38.00
62589;DHT22;58504;48.770;9.148;2022-07-29T09:01:48;32.50;37.50
62589;DHT22;58504;48.770;9.148;2022-07-29T09:04:19;32.50;37.70
62589;DHT22;58504;48.770;9.148;2022-07-29T09:06:47;32.40;37.90
62589;DHT22;58504;48.770;9.148;2022-07-29T09:09:15;32.30;38.30
62589;DHT22;58504;48.770;9.148;2022-07-29T09:11:43;32.10;38.80
62589;DHT22;58504;48.770;9.148;2022-07-29T09:14:12;31.80;39.20
62589;DHT22;58504;48.770;9.148;2022-07-29T09:16:47;31.60;39.70
62589;DHT22;58504;48.770;9.148;2022-07-29T09:19:24;31.40;40.30
62589;DHT22;58504;48.770;9.148;2022-07-29T09:21:52;31.00;40.30
62589;DHT22;58504;48.770;9.148;2022-07-29T09:24:37;30.50;41.10
62589;DHT22;58504;48.770;9.148;2022-07-29T09:27:09;30.30;42.20
62589;DHT22;58504;48.770;9.148;2022-07-29T09:29:36;30.20;42.30
62589;DHT22;58504;48.770;9.148;2022-07-29T09:32:08;30.10;42.90
62589;DHT22;58504;48.770;9.148;2022-07-29T09:34:37;30.00;41.70
62589;DHT22;58504;48.770;9.148;2022-07-29T09:37:05;29.90;41.70
62589;DHT22;58504;48.770;9.148;2022-07-29T09:39:33;29.80;42.00
62589;DHT22;58504;48.770;9.148;2022-07-29T09:42:02;29.40;42.50
62589;DHT22;58504;48.770;9.148;2022-07-29T09:44:41;29.30;43.10
62589;DHT22;58504;48.770;9.148;2022-07-29T09:47:08;29.20;43.50
62589;DHT22;58504;48.770;9.148;2022-07-29T09:49:50;29.00;43.70
62589;DHT22;58504;48.770;9.148;2022-07-29T09:52:17;28.70;43.50
62589;DHT22;58504;48.770;9.148;2022-07-29T09:54:45;28.50;44.10
62589;DHT22;58504;48.770;9.148;2022-07-29T09:57:22;28.20;44.70
62589;DHT22;58504;48.770;9.148;2022-07-29T09:59:56;28.10;44.90
62589;DHT22;58504;48.770;9.148;2022-07-29T10:02:28;28.20;45.10
62589;DHT22;58504;48.770;9.148;2022-07-29T10:04:56;28.30;45.00
62589;DHT22;58504;48.770;9.148;2022-07-29T10:07:23;28.40;44.90
62589;DHT22;58504;48.770;9.148;2022-07-29T10:09:52;28.50;44.80
62589;DHT22;58504;48.770;9.148;2022-07-29T10:12:20;28.40;44.70
62589;DHT22;58504;48.770;9.148;2022-07-29T10:14:47;28.40;44.90
62589;DHT22;58504;48.770;9.148;2022-07-29T10:17:16;28.50;44.70
62589;DHT22;58504;48.770;9.148;2022-07-29T10:19:43;28.60;45.20
62589;DHT22;58504;48.770;9.148;2022-07-29T10:22:11;28.60;44.90
62589;DHT22;58504;48.770;9.148;2022-07-29T10:24:38;28.60;44.80
62589;DHT22;58504;48.770;9.148;2022-07-29T10:27:06;28.70;44.60
62589;DHT22;58504;48.770;9.148;2022-07-29T10:29:34;28.70;44.50
62589;DHT22;58504;48.770;9.148;2022-07-29T10:32:31;28.70;44.50
62589;DHT22;58504;48.770;9.148;2022-07-29T10:35:21;28.70;44.70
62589;DHT22;58504;48.770;9.148;2022-07-29T10:40:57;28.70;45.20
62589;DHT22;58504;48.770;9.148;2022-07-29T10:43:45;28.70;45.00
62589;DHT22;58504;48.770;9.148;2022-07-29T10:46:13;28.80;45.40
62589;DHT22;58504;48.770;9.148;2022-07-29T10:49:08;28.70;45.30
62589;DHT22;58504;48.770;9.148;2022-07-29T10:51:55;28.70;45.60
62589;DHT22;58504;48.770;9.148;2022-07-29T10:54:43;28.70;46.40
62589;DHT22;58504;48.770;9.148;2022-07-29T10:57:20;28.60;46.40
62589;DHT22;58504;48.770;9.148;2022-07-29T10:59:48;28.40;48.10
62589;DHT22;58504;48.770;9.148;2022-07-29T11:02:40;28.00;49.90
62589;DHT22;58504;48.770;9.148;2022-07-29T11:05:09;27.90;51.50
62589;DHT22;58504;48.770;9.148;2022-07-29T11:07:38;27.70;55.10
62589;DHT22;58504;48.770;9.148;2022-07-29T11:10:22;27.20;54.90
62589;DHT22;58504;48.770;9.148;2022-07-29T11:12:49;26.80;55.90
62589;DHT22;58504;48.770;9.148;2022-07-29T11:15:19;26.20;56.30
62589;DHT22;58504;48.770;9.148;2022-07-29T11:18:06;26.10;57.30
62589;DHT22;58504;48.770;9.148;2022-07-29T11:20:38;26.00;58.40
62589;DHT22;58504;48.770;9.148;2022-07-29T11:23:20;26.00;57.90
62589;DHT22;58504;48.770;9.148;2022-07-29T11:26:16;26.10;58.00
62589;DHT22;58504;48.770;9.148;2022-07-29T11:28:54;26.20;57.80
62589;DHT22;58504;48.770;9.148;2022-07-29T11:31:34;26.30;57.40
62589;DHT22;58504;48.770;9.148;2022-07-29T11:34:21;26.40;57.40
62589;DHT22;58504;48.770;9.148;2022-07-29T11:37:20;26.60;57.40
62589;DHT22;58504;48.770;9.148;2022-07-29T11:40:09;26.70;58.90
62589;DHT22;58504;48.770;9.148;2022-07-29T11:42:42;26.80;57.80
62589;DHT22;58504;48.770;9.148;2022-07-29T11:45:10;26.90;58.00
62589;DHT22;58504;48.770;9.148;2022-07-29T11:47:40;26.90;57.60
62589;DHT22;58504;48.770;9.148;2022-07-29T11:50:09;27.00;58.20
62589;DHT22;58504;48.770;9.148;2022-07-29T11:52:37;27.00;59.00
62589;DHT22;58504;48.770;9.148;2022-07-29T11:55:08;27.00;57.70
62589;DHT22;58504;48.770;9.148;2022-07-29T11:57:35;27.10;59.20
62589;DHT22;58504;48.770;9.148;2022-07-29T12:00:06;26.90;58.10
62589;DHT22;58504;48.770;9.148;2022-07-29T12:02:40;26.40;58.40
62589;DHT22;58504;48.770;9.148;2022-07-29T12:05:08;26.10;58.90
62589;DHT22;58504;48.770;9.148;2022-07-29T12:07:37;26.00;59.60
62589;DHT22;58504;48.770;9.148;2022-07-29T12:10:05;26.00;59.30
62589;DHT22;58504;48.770;9.148;2022-07-29T12:12:32;26.10;58.90
62589;DHT22;58504;48.770;9.148;2022-07-29T12:15:12;26.20;58.60
62589;DHT22;58504;48.770;9.148;2022-07-29T12:17:39;26.20;58.00
62589;DHT22;58504;48.770;9.148;2022-07-29T12:20:06;26.30;57.70
62589;DHT22;58504;48.770;9.148;2022-07-29T12:22:35;26.40;56.60
62589;DHT22;58504;48.770;9.148;2022-07-29T12:25:05;26.50;55.70
62589;DHT22;58504;48.770;9.148;2022-07-29T12:27:32;26.50;54.80
62589;DHT22;58504;48.770;9.148;2022-07-29T12:30:00;26.70;54.40
62589;DHT22;58504;48.770;9.148;2022-07-29T12:32:33;26.60;54.40
62589;DHT22;58504;48.770;9.148;2022-07-29T12:35:01;26.70;53.30
62589;DHT22;58504;48.770;9.148;2022-07-29T12:37:28;26.80;53.00
62589;DHT22;58504;48.770;9.148;2022-07-29T12:39:55;26.80;53.00
62589;DHT22;58504;48.770;9.148;2022-07-29T12:42:22;26.80;52.90
62589;DHT22;58504;48.770;9.148;2022-07-29T12:44:50;26.80;52.90
62589;DHT22;58504;48.770;9.148;2022-07-29T12:47:18;26.70;52.80
62589;DHT22;58504;48.770;9.148;2022-07-29T12:49:48;26.70;52.30
62589;DHT22;58504;48.770;9.148;2022-07-29T12:52:25;26.80;52.80
62589;DHT22;58504;48.770;9.148;2022-07-29T12:54:52;26.80;52.30
62589;DHT22;58504;48.770;9.148;2022-07-29T12:57:19;26.80;51.90
62589;DHT22;58504;48.770;9.148;2022-07-29T12:59:59;26.70;52.10
62589;DHT22;58504;48.770;9.148;2022-07-29T13:02:25;26.70;53.60
62589;DHT22;58504;48.770;9.148;2022-07-29T13:04:57;26.60;53.00
62589;DHT22;58504;48.770;9.148;2022-07-29T13:07:25;26.50;53.10
62589;DHT22;58504;48.770;9.148;2022-07-29T13:09:58;26.60;54.70
62589;DHT22;58504;48.770;9.148;2022-07-29T13:12:36;26.60;54.30
62589;DHT22;58504;48.770;9.148;2022-07-29T13:15:12;26.50;53.80
62589;DHT22;58504;48.770;9.148;2022-07-29T13:17:41;26.50;53.80
62589;DHT22;58504;48.770;9.148;2022-07-29T13:20:12;26.50;53.90
62589;DHT22;58504;48.770;9.148;2022-07-29T13:22:39;26.50;53.80
62589;DHT22;58504;48.770;9.148;2022-07-29T13:25:08;26.50;54.10
62589;DHT22;58504;48.770;9.148;2022-07-29T13:27:37;26.40;54.70
62589;DHT22;58504;48.770;9.148;2022-07-29T13:30:06;26.40;55.40
62589;DHT22;58504;48.770;9.148;2022-07-29T13:32:33;26.30;55.20
62589;DHT22;58504;48.770;9.148;2022-07-29T13:35:04;26.30;55.30
62589;DHT22;58504;48.770;9.148;2022-07-29T13:37:33;26.30;55.70
62589;DHT22;58504;48.770;9.148;2022-07-29T13:40:00;26.30;56.10
62589;DHT22;58504;48.770;9.148;2022-07-29T13:42:28;26.30;56.30
62589;DHT22;58504;48.770;9.148;2022-07-29T13:44:55;26.40;56.20
62589;DHT22;58504;48.770;9.148;2022-07-29T13:47:22;26.40;56.10
62589;DHT22;58504;48.770;9.148;2022-07-29T13:49:49;26.50;56.20
62589;DHT22;58504;48.770;9.148;2022-07-29T13:52:16;26.50;56.40
62589;DHT22;58504;48.770;9.148;2022-07-29T13:54:45;26.50;55.30
62589;DHT22;58504;48.770;9.148;2022-07-29T13:57:12;26.60;54.90
62589;DHT22;58504;48.770;9.148;2022-07-29T13:59:40;26.60;54.60
62589;DHT22;58504;48.770;9.148;2022-07-29T14:02:08;26.60;54.40
62589;DHT22;58504;48.770;9.148;2022-07-29T14:04:35;26.70;54.20
62589;DHT22;58504;48.770;9.148;2022-07-29T14:07:02;26.80;54.30
62589;DHT22;58504;48.770;9.148;2022-07-29T14:09:29;26.90;53.80
62589;DHT22;58504;48.770;9.148;2022-07-29T14:11:57;26.90;54.30
62589;DHT22;58504;48.770;9.148;2022-07-29T14:14:24;26.90;54.40
62589;DHT22;58504;48.770;9.148;2022-07-29T14:16:51;27.00;54.00
62589;DHT22;58504;48.770;9.148;2022-07-29T14:19:18;27.00;53.40
62589;DHT22;58504;48.770;9.148;2022-07-29T14:21:45;27.10;54.70
62589;DHT22;58504;48.770;9.148;2022-07-29T14:24:11;27.10;54.00
62589;DHT22;58504;48.770;9.148;2022-07-29T14:26:38;27.10;53.30
62589;DHT22;58504;48.770;9.148;2022-07-29T14:29:06;27.10;53.00
62589;DHT22;58504;48.770;9.148;2022-07-29T14:31:33;27.10;53.10
62589;DHT22;58504;48.770;9.148;2022-07-29T14:34:00;27.10;53.20
62589;DHT22;58504;48.770;9.148;2022-07-29T14:36:27;27.20;53.40
62589;DHT22;58504;48.770;9.148;2022-07-29T14:38:54;27.20;53.00
62589;DHT22;58504;48.770;9.148;2022-07-29T14:41:20;27.20;52.80
62589;DHT22;58504;48.770;9.148;2022-07-29T14:43:47;27.20;52.40
62589;DHT22;58504;48.770;9.148;2022-07-29T14:46:15;27.20;53.10
62589;DHT22;58504;48.770;9.148;2022-07-29T14:48:42;27.30;52.70
62589;DHT22;58504;48.770;9.148;2022-07-29T14:51:09;27.20;52.70
62589;DHT22;58504;48.770;9.148;2022-07-29T14:53:36;27.20;53.40
62589;DHT22;58504;48.770;9.148;2022-07-29T14:56:03;27.20;52.30
62589;DHT22;58504;48.770;9.148;2022-07-29T14:58:30;27.20;52.60
62589;DHT22;58504;48.770;9.148;2022-07-29T15:00:56;27.30;52.40
62589;DHT22;58504;48.770;9.148;2022-07-29T15:03:25;27.30;52.40
62589;DHT22;58504;48.770;9.148;2022-07-29T15:05:52;27.40;52.80
62589;DHT22;58504;48.770;9.148;2022-07-29T15:08:18;27.40;52.80
62589;DHT22;58504;48.770;9.148;2022-07-29T15:10:45;27.40;52.80
62589;DHT22;58504;48.770;9.148;2022-07-29T15:13:12;27.50;52.80
62589;DHT22;58504;48.770;9.148;2022-07-29T15:15:39;27.50;53.30
62589;DHT22;58504;48.770;9.148;2022-07-29T15:18:06;27.50;53.30
62589;DHT22;58504;48.770;9.148;2022-07-29T15:20:36;27.50;53.50
62589;DHT22;58504;48.770;9.148;2022-07-29T15:23:02;27.60;54.00
62589;DHT22;58504;48.770;9.148;2022-07-29T15:25:29;27.60;53.80
62589;DHT22;58504;48.770;9.148;2022-07-29T15:27:58;27.60;54.00
62589;DHT22;58504;48.770;9.148;2022-07-29T15:30:30;27.60;54.20
62589;DHT22;58504;48.770;9.148;2022-07-29T15:32:57;27.60;54.40
62589;DHT22;58504;48.770;9.148;2022-07-29T15:35:24;27.60;54.60
62589;DHT22;58504;48.770;9.148;2022-07-29T15:37:52;27.60;54.60
62589;DHT22;58504;48.770;9.148;2022-07-29T15:40:19;27.60;54.30
62589;DHT22;58504;48.770;9.148;2022-07-29T15:42:45;27.60;54.10
62589;DHT22;58504;48.770;9.148;2022-07-29T15:45:12;27.60;54.50
62589;DHT22;58504;48.770;9.148;2022-07-29T15:47:39;27.60;54.50